Pagrindinis puslapis
METAR-TAF:

METAR-TAF

Oro uostai :

Vasa, Suomija

platuma: 63-03N, ilguma: 021-46E, Aukštis: 4 m

Dabartinis oras

Ataskaita buvo paskelbta 31 minutes, ne 20:20 UTC
Vėjas 13 kt iš Pietų
Temperatūra 16°C
Drėgmė 59%
Slėgis 1015 hPa
Matomumas 10 km arba daugiau
nėra debesų žemiau 1500 m ir nėra kamuolinių lietaus debesų

METAR: EFVA 172020Z AUTO 19013KT CAVOK 16/08 Q1015

Laikas: 23:51 (20:51 UTC)

Prognozė

Ataskaita buvo paskelbta 18 minutes, ne 20:33 UTC
Prognozė galioja nuo 17 metu 21 UTC su 18 metu 21 UTC
Vėjas 10 kt iš Pietų
Matomumas 10 km arba daugiau
nėra debesų žemiau 1500 m ir nėra kamuolinių lietaus debesų
Laikinai
nuo 18 metu 11 UTC su 18 metu 14 UTC
Vėjas 17 kt iš Pietų/Pietvakarių su gūsio iki 30 kt
Laikinai
nuo 18 metu 14 UTC su 18 metu 21 UTC
Mažai debesys ne aukštis 6000 ft, Liūtiniai kamuoliniai debesys.

TAF: EFVA 172033Z 1721/1821 18010KT CAVOK TEMPO 1811/1814 20017G30KT TEMPO 1814/1821 FEW060CB

Orai ataskaitas ir orų prognozės (METAR, TAF).

turimą stotys yra geltonos ir raudonos taškus žemėlapyje.

Perkelti pele per norėdami pamatyti stoties vardą.

Tada spustelėkite, norėdami matyti oro stebėjimo ir prognozės.

Norėdami pakeisti žemėlapį: spustelėkite ant žalios mygtukų su juodo kryžiaus žemyn,; žalią mygtuką su brūkšneliu, jei norite nutolinti; arba žalių rodyklių gretimoms žemėlapius.


METAR-TAF: